deformed-offering

Nearby METAR Reports

 

KSJC - San Jose, California, USA
Distance from station: NE 9mi, 14km
Updated: Thu, 24-Sep-2020 10:53am PDT
Few Clouds
Few Clouds
 Wind from varies
Wind: varies 7 mph , 11 km/h
Temperature: 73°F , 23°C
Dew Point: 59°F , 15°C
Humidity: 61%
Barometer: 30.06 inHg , 1017.9 hPa
Clouds: Few Clouds
Visibility: 10 miles , 16 km
Cloud details: Few Clouds 2900 ft
2020/09/24 17:53 KSJC 241753Z VRB06KT 10SM FEW029 23/15 A3006 RMK AO2 SLP179 T02330150 10239 20183 50001
KRHV - San Jose/Reid, California, USA
Distance from station: ENE 12mi, 19km
Updated: Thu, 24-Sep-2020 10:47am PDT
Partly Cloudy
Partly Cloudy
 Wind from W
Wind: W 7 mph , 11 km/h
Temperature: 73°F , 23°C
Dew Point: 61°F , 16°C
Humidity: 65%
Barometer: 30.07 inHg , 1018.3 hPa
Clouds: Partly Cloudy
Visibility: 10 miles , 16 km
Cloud details: Partly Cloudy 1500 ft
2020/09/24 17:47 KRHV 241747Z 28006KT 10SM SCT015 23/16 A3007
 
KPAO - Palo Alto, California, USA
Distance from station: NNW 14mi, 23km
Updated: Thu, 24-Sep-2020 9:47am PDT
NOT Current
Few Clouds
Few Clouds
 Wind from N
Wind: N 6 mph , 9 km/h
Temperature: 70°F , 21°C
Dew Point: 63°F , 17°C
Humidity: 78%
Barometer: 30.07 inHg , 1018.3 hPa
Clouds: Few Clouds
Visibility: 10 miles , 16 km
Cloud details: Few Clouds 2000 ft
2020/09/24 16:47 KPAO 241647Z 01005KT 10SM FEW020 21/17 A3007
KSQL - San Carlos Airpo, California, USA
Distance from station: NW 21mi, 34km
Updated: Thu, 24-Sep-2020 10:47am PDT
Few Clouds
Few Clouds
 Wind from N
Wind: N 6 mph , 9 km/h
Temperature: 72°F , 22°C
Dew Point: 63°F , 17°C
Humidity: 73%
Barometer: 30.08 inHg , 1018.6 hPa
Clouds: Few Clouds
Visibility: 10 miles , 16 km
Cloud details: Few Clouds 800 ft
2020/09/24 17:47 KSQL 241747Z 36005KT 10SM FEW008 22/17 A3008
 
KWVI - Watsonville, California, USA
Distance from station: SSE 27mi, 44km
Updated: Thu, 24-Sep-2020 10:53am PDT
Clear
Clear
 Wind from SW
Wind: SW 5 mph , 7 km/h
Temperature: 73°F , 23°C
Dew Point: 61°F , 16°C
Humidity: 65%
Barometer: 30.06 inHg , 1017.9 hPa
Clouds: Clear
Visibility: 10 miles , 16 km
2020/09/24 17:53 KWVI 241753Z AUTO 22004KT 10SM CLR 23/16 A3006 RMK AO2 SLP177 T02330161 10239 20122 58001
KHWD - Hayward, California, USA
Distance from station: N 28mi, 44km
Updated: Thu, 24-Sep-2020 10:54am PDT
Partly Cloudy
Partly Cloudy
 Wind from WNW
Wind: WNW 6 mph , 9 km/h
Temperature: 72°F , 22°C
Dew Point: 61°F , 16°C
Humidity: 69%
Barometer: 30.07 inHg , 1018.3 hPa
Clouds: Partly Cloudy
Visibility: 10 miles , 16 km
Cloud details: Partly Cloudy 1000 ft
2020/09/24 17:54 KHWD 241754Z 29005KT 10SM SCT010 22/16 A3007 RMK AO2 SLP190 T02220161 10222 20189 51002
 
KSFO - San Francisco, California, USA
Distance from station: NW 30mi, 49km
Updated: Thu, 24-Sep-2020 10:56am PDT
Partly Cloudy
Partly Cloudy
 Wind from WNW
Wind: WNW 13 mph , 20 km/h
Temperature: 70°F , 21°C
Dew Point: 61°F , 16°C
Humidity: 73%
Barometer: 30.07 inHg , 1018.3 hPa
Clouds: Partly Cloudy
Visibility: 10 miles , 16 km
Cloud details: Few Clouds 600 ft
Partly Cloudy 800 ft
2020/09/24 17:56 KSFO 241756Z 30011KT 10SM FEW006 SCT008 21/16 A3007 RMK AO2 SLP181 T02060161 10211 20161 53003 $
KHAF - Half Moon Bay, California, USA
Distance from station: WNW 31mi, 50km
Updated: Thu, 24-Sep-2020 11:35am PDT
Overcast
Overcast
 Wind from NW
Wind: NW 10 mph , 17 km/h
Temperature: 64°F , 18°C
Dew Point: 63°F , 17°C
Humidity: 94%
Barometer: 30.09 inHg , 1019 hPa
Clouds: Overcast
Visibility: 7 miles , 11 km
Cloud details: Overcast 400 ft
2020/09/24 18:35 KHAF 241835Z AUTO 32009KT 7SM OVC004 18/17 A3009 RMK AO2
 
KLVK - Livermore, California, USA
Distance from station: NNE 31mi, 51km
Updated: Thu, 24-Sep-2020 10:53am PDT
Clear
Clear
 Wind from W
Wind: W 10 mph , 17 km/h
Temperature: 75°F , 24°C
Dew Point: 59°F , 15°C
Humidity: 57%
Barometer: 30.06 inHg , 1017.9 hPa
Clouds: Clear
Visibility: 10 miles , 16 km
2020/09/24 17:53 KLVK 241753Z 28009KT 10SM CLR 24/15 A3006 RMK AO2 SLP173 T02440150 10244 20161 50001
KOAK - Oakland, California, USA
Distance from station: NNW 33mi, 53km
Updated: Thu, 24-Sep-2020 10:53am PDT
Few Clouds
Few Clouds
 Wind from W
Wind: W 7 mph , 11 km/h
Temperature: 70°F , 21°C
Dew Point: 61°F , 16°C
Humidity: 73%
Barometer: 30.07 inHg , 1018.3 hPa
Clouds: Few Clouds
Visibility: 10 miles , 16 km
Cloud details: Few Clouds 400 ft
2020/09/24 17:53 KOAK 241753Z 27006KT 10SM FEW004 21/16 A3007 RMK AO2 SLP183 T02110161 10211 20167 53004
 
KCVH - Hollister Muni, California, USA
Distance from station: SE 42mi, 68km
Updated: Thu, 24-Sep-2020 11:35am PDT
Clear
Clear
 Wind from varies
Wind: varies 5 mph , 7 km/h
Temperature: 73°F , 23°C
Dew Point: 61°F , 16°C
Humidity: 65%
Barometer: 30.06 inHg , 1017.9 hPa
Clouds: Clear
Visibility: 10 miles , 16 km
2020/09/24 18:35 KCVH 241835Z AUTO VRB04KT 10SM CLR 23/16 A3006 RMK A01
KSNS - Salinas, California, USA
Distance from station: SSE 48mi, 77km
Updated: Thu, 24-Sep-2020 10:53am PDT
Clear
Clear
 Wind from WNW
Wind: WNW 8 mph , 13 km/h
Temperature: 77°F , 25°C
Dew Point: 59°F , 15°C
Humidity: 54%
Barometer: 30.05 inHg , 1017.6 hPa
Clouds: Clear
Visibility: 10 miles , 16 km
2020/09/24 17:53 KSNS 241753Z 30007KT 10SM CLR 25/15 A3005 RMK AO2 SLP184 T02500150 10250 20144 58001
 
KMRY - Monterey, California, USA
Distance from station: SSE 49mi, 78km
Updated: Thu, 24-Sep-2020 10:54am PDT
Clear
Clear
 Wind from NW
Wind: NW 7 mph , 11 km/h
Temperature: 66°F , 19°C
Dew Point: 59°F , 15°C
Humidity: 78%
Barometer: 30.08 inHg , 1018.6 hPa
Clouds: Clear
Visibility: 10 miles , 16 km
2020/09/24 17:54 KMRY 241754Z 32006KT 10SM CLR 19/15 A3008 RMK AO2 SLPNO T01890150 53004 $
KCCR - Concord, California, USA
Distance from station: N 50mi, 81km
Updated: Thu, 24-Sep-2020 10:53am PDT
Clear
Clear
 Wind from W
Wind: W 12 mph , 19 km/h, Gust: 20 mph , 31 km/h
Temperature: 79°F , 26°C
Dew Point: 59°F , 15°C
Humidity: 51%
Barometer: 30.04 inHg , 1017.3 hPa
Clouds: Clear
Visibility: 10 miles , 16 km
2020/09/24 17:53 KCCR 241753Z 27010G17KT 10SM CLR 26/15 A3004 RMK AO2 SLP159 T02610150 10261 20178 50003
deformed-offering